Time;durP1;ratioP1;P1;durP2;ratioP2;P2;SDS_P1;SDS_P2;PMS_P1;PMS_P2;Temp;Humidity;BMP_temperature;BMP_pressure;BME280_temperature;BME280_humidity;BME280_pressure;Samples;Min_cycle;Max_cycle;Signal;HPM_P1;HPM_P2
2023/05/30 00:02:08;;;;;;;13.85;3.08;;;12.70;85.40;;;;;;5075253;28;20036;-70
2023/05/30 00:04:33;;;;;;;13.40;3.35;;;12.70;85.50;;;;;;5075484;28;20032;-70
2023/05/30 00:06:59;;;;;;;14.05;3.58;;;12.70;85.80;;;;;;5075456;28;20036;-70
2023/05/30 00:09:25;;;;;;;14.60;3.28;;;12.70;85.80;;;;;;5075400;28;20066;-70
2023/05/30 00:11:54;;;;;;;15.43;2.85;;;12.70;85.80;;;;;;5075519;28;20040;-70
2023/05/30 00:14:20;;;;;;;16.98;3.35;;;12.70;85.80;;;;;;5075406;28;20044;-70
2023/05/30 00:16:47;;;;;;;14.98;3.50;;;12.70;85.80;;;;;;5092589;28;20036;-70
2023/05/30 00:19:13;;;;;;;16.23;3.63;;;12.60;85.70;;;;;;5075081;28;20040;-70
2023/05/30 00:21:39;;;;;;;12.57;3.60;;;12.60;85.90;;;;;;5075148;28;20122;-70
2023/05/30 00:24:05;;;;;;;12.18;3.42;;;12.60;86.00;;;;;;5075465;28;20122;-70
2023/05/30 00:26:31;;;;;;;14.15;3.08;;;12.60;86.10;;;;;;5075360;28;20534;-70
2023/05/30 00:28:57;;;;;;;15.82;3.40;;;12.60;86.10;;;;;;5075106;28;20047;-70
2023/05/30 00:31:23;;;;;;;12.88;3.20;;;12.60;86.20;;;;;;5075307;28;20052;-70
2023/05/30 00:33:49;;;;;;;12.07;3.17;;;12.60;86.30;;;;;;5075418;28;20113;-70
2023/05/30 00:36:14;;;;;;;9.90;2.88;;;12.70;86.50;;;;;;5075083;28;20493;-70
2023/05/30 00:38:41;;;;;;;12.57;3.42;;;12.70;86.40;;;;;;5075248;28;20188;-70
2023/05/30 00:41:07;;;;;;;17.55;3.55;;;12.70;86.40;;;;;;5057051;28;20044;-70
2023/05/30 00:43:32;;;;;;;12.50;3.20;;;12.70;86.60;;;;;;5074945;28;20032;-70
2023/05/30 00:45:58;;;;;;;17.23;3.42;;;12.70;86.70;;;;;;5074987;28;20118;-70
2023/05/30 00:48:25;;;;;;;10.80;2.95;;;12.70;86.70;;;;;;5074938;28;20040;-70
2023/05/30 00:50:53;;;;;;;17.23;4.30;;;12.60;86.70;;;;;;5058127;28;20118;-70
2023/05/30 00:53:21;;;;;;;14.77;3.53;;;12.60;87.00;;;;;;5074940;28;20075;-70
2023/05/30 00:55:47;;;;;;;13.43;2.97;;;12.60;87.10;;;;;;5074890;28;20043;-70
2023/05/30 00:58:14;;;;;;;12.93;2.92;;;12.70;87.40;;;;;;5074787;28;20089;-70
2023/05/30 01:00:39;;;;;;;11.27;3.60;;;12.70;87.40;;;;;;5074604;28;20093;-70
2023/05/30 01:03:06;;;;;;;12.57;3.25;;;12.70;87.30;;;;;;5074784;28;20032;-70
2023/05/30 01:05:32;;;;;;;12.13;3.72;;;12.70;87.40;;;;;;5075006;28;20074;-70
2023/05/30 01:07:58;;;;;;;14.00;3.63;;;12.70;87.50;;;;;;5074735;28;20044;-70
2023/05/30 01:10:24;;;;;;;9.70;3.28;;;12.70;87.60;;;;;;5074990;28;20097;-70
2023/05/30 01:13:09;;;;;;;10.98;2.90;;;12.70;87.50;;;;;;5075307;28;20058;-70
2023/05/30 01:15:42;;;;;;;23.10;3.67;;;12.70;87.10;;;;;;5075167;28;20144;-70
2023/05/30 01:18:12;;;;;;;15.80;3.40;;;12.70;87.20;;;;;;5074639;28;20492;-70
2023/05/30 01:20:47;;;;;;;13.73;3.40;;;12.60;87.20;;;;;;5074562;28;20058;-70
2023/05/30 01:23:37;;;;;;;13.02;3.10;;;12.60;87.50;;;;;;5075424;28;20392;-70
2023/05/30 01:26:40;;;;;;;15.30;3.30;;;12.60;87.50;;;;;;5057961;28;20040;-70
2023/05/30 01:29:09;;;;;;;11.65;2.88;;;12.60;87.60;;;;;;5078260;28;20044;-70
2023/05/30 01:31:35;;;;;;;14.27;3.33;;;12.50;87.70;;;;;;5078192;28;20048;-70
2023/05/30 01:34:04;;;;;;;14.93;3.47;;;12.50;87.80;;;;;;5061604;28;20040;-70
2023/05/30 01:36:30;;;;;;;12.77;2.80;;;12.50;87.80;;;;;;5078164;28;20051;-70
2023/05/30 01:38:56;;;;;;;12.73;3.15;;;12.50;87.90;;;;;;5078061;28;20048;-70
2023/05/30 01:41:40;;;;;;;13.05;3.20;;;12.50;87.70;;;;;;5078052;28;20206;-70
2023/05/30 01:44:20;;;;;;;9.35;3.10;;;12.50;88.00;;;;;;5078008;28;20134;-70
2023/05/30 01:46:59;;;;;;;12.13;3.13;;;12.50;87.80;;;;;;5077994;28;20047;-70
2023/05/30 01:49:30;;;;;;;10.85;2.88;;;12.60;88.00;;;;;;5077943;28;20052;-70
2023/05/30 01:52:11;;;;;;;14.45;3.42;;;12.50;88.30;;;;;;5077837;28;20040;-70
2023/05/30 01:54:39;;;;;;;13.02;3.05;;;12.60;88.50;;;;;;5077854;28;20055;-70
2023/05/30 01:57:09;;;;;;;11.32;2.67;;;12.60;88.50;;;;;;5077793;28;20082;-70
2023/05/30 01:59:37;;;;;;;12.27;2.67;;;12.60;89.00;;;;;;5078612;28;20040;-70
2023/05/30 02:02:03;;;;;;;12.68;3.10;;;12.60;88.00;;;;;;5077538;28;20411;-70
2023/05/30 02:04:30;;;;;;;12.27;3.15;;;12.50;87.50;;;;;;5077933;28;20048;-70
2023/05/30 02:06:56;;;;;;;13.20;2.95;;;12.50;87.50;;;;;;5077785;28;20488;-70
2023/05/30 02:09:22;;;;;;;15.02;3.28;;;12.50;87.60;;;;;;5077549;28;20051;-70
2023/05/30 02:11:48;;;;;;;9.57;2.72;;;12.50;87.40;;;;;;5077499;28;20051;-70
2023/05/30 02:14:14;;;;;;;11.70;3.13;;;12.50;87.40;;;;;;5060743;28;20036;-70
2023/05/30 02:16:40;;;;;;;9.27;2.60;;;12.40;87.40;;;;;;5077414;28;20172;-70
2023/05/30 02:19:06;;;;;;;10.00;2.58;;;12.40;87.50;;;;;;5077305;28;20523;-70
2023/05/30 02:21:32;;;;;;;13.68;2.83;;;12.40;87.30;;;;;;5077293;28;20032;-70
2023/05/30 02:23:58;;;;;;;13.18;2.90;;;12.40;87.20;;;;;;5077262;28;20044;-70
2023/05/30 02:26:26;;;;;;;10.20;2.67;;;12.40;87.30;;;;;;5077237;28;20039;-70
2023/05/30 02:28:51;;;;;;;9.13;2.50;;;12.40;87.30;;;;;;5077233;28;20513;-70
2023/05/30 02:31:17;;;;;;;11.10;2.90;;;12.40;87.40;;;;;;5077335;28;20082;-70
2023/05/30 02:33:43;;;;;;;13.73;3.35;;;12.40;87.40;;;;;;5077387;28;20520;-70
2023/05/30 02:36:09;;;;;;;12.98;2.97;;;12.40;87.50;;;;;;5077055;28;20075;-70
2023/05/30 02:38:35;;;;;;;13.27;2.80;;;12.40;87.50;;;;;;5076510;28;20076;-70
2023/05/30 02:41:00;;;;;;;11.10;3.00;;;12.40;87.70;;;;;;5077071;28;20040;-70
2023/05/30 02:43:26;;;;;;;12.73;2.83;;;12.40;87.70;;;;;;5076975;28;20036;-70
2023/05/30 02:45:52;;;;;;;15.90;3.70;;;12.40;87.90;;;;;;5076820;28;20043;-70
2023/05/30 02:48:18;;;;;;;12.05;2.97;;;12.40;87.80;;;;;;5076803;28;20040;-70
2023/05/30 02:50:44;;;;;;;13.45;2.80;;;12.40;87.80;;;;;;5076688;28;20066;-70
2023/05/30 02:53:10;;;;;;;12.77;3.28;;;12.40;87.90;;;;;;5076757;28;20043;-70
2023/05/30 02:55:36;;;;;;;11.90;3.35;;;12.40;88.10;;;;;;5076934;28;20044;-70
2023/05/30 02:58:01;;;;;;;13.05;2.88;;;12.40;88.10;;;;;;5059922;28;20075;-70
2023/05/30 03:00:27;;;;;;;11.80;3.17;;;12.40;88.10;;;;;;5076296;28;20042;-70
2023/05/30 03:02:54;;;;;;;14.88;3.47;;;12.50;88.10;;;;;;5076803;28;20493;-70
2023/05/30 03:05:20;;;;;;;13.02;4.10;;;12.50;88.10;;;;;;5076431;28;20044;-70
2023/05/30 03:07:46;;;;;;;12.00;3.30;;;12.40;88.00;;;;;;5076381;28;20489;-70
2023/05/30 03:10:12;;;;;;;12.30;2.97;;;12.40;88.20;;;;;;5076496;28;20066;-70
2023/05/30 03:12:38;;;;;;;13.05;3.05;;;12.40;88.30;;;;;;5076287;28;20044;-70
2023/05/30 03:15:06;;;;;;;16.50;3.10;;;12.40;88.40;;;;;;5076318;28;20048;-70
2023/05/30 03:17:32;;;;;;;9.32;2.90;;;12.40;88.40;;;;;;5076231;28;20047;-69
2023/05/30 03:19:58;;;;;;;15.18;3.05;;;12.40;88.50;;;;;;5076244;28;20036;-69
2023/05/30 03:22:23;;;;;;;11.82;3.38;;;12.40;88.80;;;;;;5059440;28;20525;-69
2023/05/30 03:24:49;;;;;;;14.38;3.42;;;12.40;88.90;;;;;;5076113;28;20051;-69
2023/05/30 03:27:15;;;;;;;10.70;3.28;;;12.40;88.80;;;;;;5076068;28;20123;-69
2023/05/30 03:29:41;;;;;;;12.90;2.95;;;12.40;89.00;;;;;;5076045;28;20040;-69
2023/05/30 03:32:07;;;;;;;12.73;3.58;;;12.40;88.90;;;;;;5075922;28;20044;-69
2023/05/30 03:34:33;;;;;;;13.65;3.45;;;12.50;89.20;;;;;;5075896;28;20054;-69
2023/05/30 03:36:59;;;;;;;13.23;3.67;;;12.50;89.10;;;;;;5075923;28;20043;-69
2023/05/30 03:39:25;;;;;;;13.52;3.63;;;12.50;89.20;;;;;;5075798;28;20054;-69
2023/05/30 03:41:51;;;;;;;11.35;2.97;;;12.50;89.20;;;;;;5075755;28;20146;-69
2023/05/30 03:44:16;;;;;;;13.38;3.30;;;12.50;89.40;;;;;;5075795;28;20081;-69
2023/05/30 03:46:42;;;;;;;12.27;3.13;;;12.50;89.40;;;;;;5075710;28;20140;-69
2023/05/30 03:49:07;;;;;;;12.20;3.85;;;12.50;89.30;;;;;;5059105;28;20043;-69
2023/05/30 03:51:35;;;;;;;13.07;3.15;;;12.50;89.40;;;;;;5059172;28;20040;-69
2023/05/30 03:54:01;;;;;;;18.17;3.55;;;12.50;89.60;;;;;;5075847;28;20115;-69
2023/05/30 03:56:27;;;;;;;11.40;3.70;;;12.50;89.50;;;;;;5075469;28;20463;-69
2023/05/30 03:58:52;;;;;;;11.20;3.17;;;12.60;89.70;;;;;;5075554;28;20039;-69
2023/05/30 04:01:18;;;;;;;18.92;3.60;;;12.60;89.70;;;;;;5075337;28;20071;-69
2023/05/30 04:03:45;;;;;;;13.85;3.70;;;12.60;89.80;;;;;;5075704;28;20032;-69
2023/05/30 04:06:11;;;;;;;19.05;3.67;;;12.60;89.50;;;;;;5075635;28;20489;-70
2023/05/30 04:08:37;;;;;;;17.23;3.38;;;12.60;89.30;;;;;;5058740;28;20552;-70
2023/05/30 04:11:04;;;;;;;13.73;3.38;;;12.60;90.00;;;;;;5075555;28;20078;-70
2023/05/30 04:13:29;;;;;;;13.13;3.70;;;12.60;89.40;;;;;;5075291;28;20046;-70
2023/05/30 04:15:55;;;;;;;16.42;3.42;;;12.70;89.50;;;;;;5075317;28;20111;-70
2023/05/30 04:18:20;;;;;;;15.02;3.72;;;12.70;89.70;;;;;;5075276;28;20032;-70
2023/05/30 04:20:46;;;;;;;13.00;3.00;;;12.70;89.60;;;;;;5075047;28;20048;-70
2023/05/30 04:23:12;;;;;;;11.93;3.20;;;12.60;89.20;;;;;;5075282;28;20036;-70
2023/05/30 04:25:38;;;;;;;12.93;3.28;;;12.70;89.20;;;;;;5075461;28;20079;-70
2023/05/30 04:28:05;;;;;;;13.52;3.53;;;12.70;89.20;;;;;;5075421;28;20078;-70
2023/05/30 04:30:33;;;;;;;11.75;3.25;;;12.70;89.50;;;;;;5075061;28;20040;-70
2023/05/30 04:32:58;;;;;;;14.80;3.38;;;12.70;89.40;;;;;;5075359;28;20059;-70
2023/05/30 04:35:24;;;;;;;14.40;3.88;;;12.80;89.60;;;;;;5075080;28;20048;-70
2023/05/30 04:37:50;;;;;;;12.77;3.47;;;12.80;89.60;;;;;;5075302;28;20044;-70
2023/05/30 04:40:15;;;;;;;15.75;3.35;;;12.80;89.30;;;;;;5074832;28;20052;-70
2023/05/30 04:42:42;;;;;;;13.55;3.33;;;12.80;89.40;;;;;;5075037;28;20036;-70
2023/05/30 04:45:09;;;;;;;14.35;3.20;;;12.80;89.10;;;;;;5074972;28;20077;-70
2023/05/30 04:47:36;;;;;;;11.68;3.28;;;12.90;88.90;;;;;;5075199;28;20044;-70
2023/05/30 04:50:02;;;;;;;16.88;3.58;;;12.90;88.80;;;;;;5074961;28;20043;-70
2023/05/30 04:52:28;;;;;;;14.48;2.95;;;12.90;89.10;;;;;;5074887;28;20052;-70
2023/05/30 04:54:55;;;;;;;10.77;3.05;;;12.90;89.20;;;;;;5074894;28;20101;-70
2023/05/30 04:57:21;;;;;;;12.18;3.30;;;12.90;89.00;;;;;;5074907;28;20123;-70
2023/05/30 04:59:46;;;;;;;15.98;3.10;;;12.90;89.20;;;;;;5074879;28;20115;-70
2023/05/30 05:02:13;;;;;;;17.17;3.30;;;12.90;89.40;;;;;;5075618;28;20515;-70
2023/05/30 05:04:39;;;;;;;20.92;3.70;;;13.00;89.50;;;;;;5062064;28;20032;-70
2023/05/30 05:07:04;;;;;;;12.68;3.08;;;13.00;89.90;;;;;;5078782;28;20039;-70
2023/05/30 05:09:30;;;;;;;15.10;3.30;;;13.00;89.80;;;;;;5078675;28;20071;-70
2023/05/30 05:11:56;;;;;;;17.75;3.67;;;13.00;89.90;;;;;;5078829;28;20046;-70
2023/05/30 05:14:22;;;;;;;17.25;3.85;;;13.10;90.00;;;;;;5078599;28;20036;-70
2023/05/30 05:16:48;;;;;;;16.25;3.92;;;13.10;90.00;;;;;;5062205;28;20563;-70
2023/05/30 05:19:14;;;;;;;14.05;3.45;;;13.20;90.00;;;;;;5078406;28;20040;-70
2023/05/30 05:21:40;;;;;;;12.60;3.47;;;13.20;90.00;;;;;;5078406;28;20101;-70
2023/05/30 05:24:07;;;;;;;15.43;3.60;;;13.20;90.00;;;;;;5078538;28;20115;-70
2023/05/30 05:26:32;;;;;;;15.48;3.92;;;13.20;90.00;;;;;;5078636;28;20032;-70
2023/05/30 05:28:58;;;;;;;17.17;4.28;;;13.30;90.10;;;;;;5078567;28;20063;-70
2023/05/30 05:31:24;;;;;;;17.52;3.70;;;13.30;90.10;;;;;;5078970;28;20472;-70
2023/05/30 05:33:49;;;;;;;13.77;3.63;;;13.30;90.00;;;;;;5078277;28;20491;-70
2023/05/30 05:36:15;;;;;;;12.93;3.30;;;13.30;90.10;;;;;;5078287;28;20048;-70
2023/05/30 05:38:40;;;;;;;16.23;3.90;;;13.40;90.10;;;;;;5078095;28;20036;-70
2023/05/30 05:41:06;;;;;;;12.23;3.85;;;13.40;90.20;;;;;;5078117;28;20036;-70
2023/05/30 05:43:32;;;;;;;13.13;3.03;;;13.40;90.20;;;;;;5078381;28;20042;-70
2023/05/30 05:45:57;;;;;;;12.20;2.65;;;13.50;90.20;;;;;;5078332;28;20119;-70
2023/05/30 05:48:23;;;;;;;12.57;2.80;;;13.50;90.00;;;;;;5078052;28;20478;-70
2023/05/30 05:50:49;;;;;;;13.20;3.40;;;13.50;90.00;;;;;;5078092;28;20082;-70
2023/05/30 05:53:14;;;;;;;16.55;3.33;;;13.50;90.10;;;;;;5061553;28;20562;-70
2023/05/30 05:55:40;;;;;;;9.27;2.60;;;13.50;90.20;;;;;;5061224;28;20603;-70
2023/05/30 05:58:05;;;;;;;14.45;3.70;;;13.50;90.20;;;;;;5078040;28;20039;-70
2023/05/30 06:00:33;;;;;;;12.07;2.83;;;13.50;90.30;;;;;;5077550;28;20392;-70
2023/05/30 06:02:59;;;;;;;10.30;2.83;;;13.40;90.30;;;;;;5078551;28;20051;-70
2023/05/30 06:05:24;;;;;;;14.75;3.30;;;13.40;90.50;;;;;;5077665;28;20031;-70
2023/05/30 06:07:50;;;;;;;16.85;3.13;;;13.40;90.90;;;;;;5077645;28;20040;-70
2023/05/30 06:10:15;;;;;;;11.75;2.65;;;13.40;90.90;;;;;;5077830;28;20068;-70
2023/05/30 06:12:41;;;;;;;12.02;3.38;;;13.40;91.10;;;;;;5077772;28;20401;-70
2023/05/30 06:15:07;;;;;;;17.25;3.53;;;13.50;91.20;;;;;;5076482;28;20056;-70
2023/05/30 06:17:33;;;;;;;17.23;3.33;;;13.50;91.20;;;;;;5077382;28;20404;-70
2023/05/30 06:19:58;;;;;;;15.52;3.15;;;13.50;91.40;;;;;;5095694;28;20036;-70
2023/05/30 06:22:24;;;;;;;11.48;2.92;;;13.50;91.60;;;;;;5077203;28;20032;-70
2023/05/30 06:24:50;;;;;;;12.95;2.60;;;13.50;91.60;;;;;;5077774;28;20044;-70
2023/05/30 06:27:15;;;;;;;14.65;2.65;;;13.50;91.50;;;;;;5077235;28;20032;-70
2023/05/30 06:29:41;;;;;;;12.27;2.63;;;13.50;91.60;;;;;;5077199;28;20043;-70
2023/05/30 06:32:10;;;;;;;9.40;2.40;;;13.40;91.90;;;;;;5077100;28;20036;-70
2023/05/30 06:34:35;;;;;;;12.27;2.58;;;13.40;92.00;;;;;;5077327;28;20377;-70
2023/05/30 06:37:01;;;;;;;11.98;3.08;;;13.40;92.30;;;;;;5077091;28;20084;-70
2023/05/30 06:39:27;;;;;;;7.55;2.22;;;13.40;92.40;;;;;;5077142;28;20048;-70
2023/05/30 06:41:53;;;;;;;9.75;2.53;;;13.50;92.50;;;;;;5095316;28;20392;-70
2023/05/30 06:44:18;;;;;;;10.63;2.70;;;13.50;92.50;;;;;;5076901;28;20488;-70
2023/05/30 06:46:44;;;;;;;14.93;2.80;;;13.50;92.50;;;;;;5076941;28;20122;-70
2023/05/30 06:49:10;;;;;;;13.90;2.80;;;13.40;92.60;;;;;;5094957;28;20035;-70
2023/05/30 06:51:36;;;;;;;11.55;2.90;;;13.40;92.70;;;;;;5076727;28;20523;-70
2023/05/30 06:54:02;;;;;;;11.07;2.10;;;13.40;92.90;;;;;;5077000;28;20046;-70
2023/05/30 06:56:28;;;;;;;13.48;2.25;;;13.50;92.90;;;;;;5076919;28;20393;-70
2023/05/30 06:58:54;;;;;;;9.43;2.22;;;13.50;93.00;;;;;;5076594;28;20489;-70
2023/05/30 07:01:20;;;;;;;9.35;2.60;;;13.40;93.10;;;;;;5076439;28;20039;-70
2023/05/30 07:03:46;;;;;;;10.98;2.72;;;13.40;93.20;;;;;;5076531;28;20036;-70
2023/05/30 07:06:12;;;;;;;9.48;2.53;;;13.40;93.30;;;;;;5076477;28;20040;-70
2023/05/30 07:08:38;;;;;;;8.90;1.98;;;13.50;93.40;;;;;;5076779;28;20073;-70
2023/05/30 07:11:06;;;;;;;14.18;2.70;;;13.50;93.50;;;;;;5076649;28;20126;-70
2023/05/30 07:13:32;;;;;;;6.78;1.95;;;13.50;93.60;;;;;;5076337;28;20036;-70
2023/05/30 07:15:57;;;;;;;11.13;2.40;;;13.50;93.70;;;;;;5076375;28;20119;-70
2023/05/30 07:18:23;;;;;;;11.70;2.83;;;13.60;93.80;;;;;;5076237;28;20036;-70
2023/05/30 07:20:48;;;;;;;10.88;2.67;;;13.60;93.80;;;;;;5076124;28;20047;-70
2023/05/30 07:23:14;;;;;;;10.80;2.67;;;13.60;93.80;;;;;;5059839;28;20035;-70
2023/05/30 07:25:40;;;;;;;10.13;2.58;;;13.60;93.80;;;;;;5059377;28;20090;-70
2023/05/30 07:28:06;;;;;;;13.38;2.75;;;13.60;93.90;;;;;;5076071;28;20496;-70
2023/05/30 07:30:32;;;;;;;9.77;2.50;;;13.60;94.00;;;;;;5076162;28;20047;-70
2023/05/30 07:32:58;;;;;;;9.35;1.90;;;13.60;94.20;;;;;;5075934;28;20036;-70
2023/05/30 07:35:23;;;;;;;11.50;2.40;;;13.60;94.30;;;;;;5076466;28;20044;-70
2023/05/30 07:37:51;;;;;;;8.65;2.42;;;13.60;94.30;;;;;;5094029;28;20489;-70
2023/05/30 07:40:18;;;;;;;7.38;2.05;;;13.70;94.40;;;;;;5075699;28;20522;-70
2023/05/30 07:42:44;;;;;;;6.90;1.80;;;13.70;94.60;;;;;;5075758;28;20035;-70
2023/05/30 07:45:10;;;;;;;5.30;1.67;;;13.70;94.40;;;;;;5059076;28;20435;-70
2023/05/30 07:47:35;;;;;;;10.05;2.20;;;13.80;94.50;;;;;;5075716;28;20036;-70
2023/05/30 07:50:01;;;;;;;9.32;2.10;;;13.70;94.80;;;;;;5075677;28;20036;-70
2023/05/30 07:52:27;;;;;;;7.63;1.50;;;13.70;94.80;;;;;;5075825;28;20040;-70
2023/05/30 07:54:52;;;;;;;8.15;1.55;;;13.70;95.00;;;;;;5075969;28;20488;-70
2023/05/30 07:57:18;;;;;;;5.85;1.70;;;13.80;95.10;;;;;;5075562;28;20539;-70
2023/05/30 07:59:44;;;;;;;6.22;1.40;;;13.80;95.00;;;;;;5075499;28;20040;-70
2023/05/30 08:02:09;;;;;;;6.10;1.25;;;13.80;94.80;;;;;;5075357;28;20043;-70
2023/05/30 08:04:36;;;;;;;5.32;1.45;;;13.90;94.70;;;;;;5075471;28;20036;-70
2023/05/30 08:07:02;;;;;;;4.45;1.45;;;13.90;95.00;;;;;;5075689;28;20040;-70
2023/05/30 08:09:28;;;;;;;6.38;1.70;;;14.00;95.10;;;;;;5075394;28;20071;-70
2023/05/30 08:11:54;;;;;;;5.85;1.52;;;14.00;95.20;;;;;;5093659;28;20131;-70
2023/05/30 08:14:20;;;;;;;4.68;1.50;;;14.00;95.30;;;;;;5075366;28;20523;-70
2023/05/30 08:16:45;;;;;;;6.40;1.33;;;14.00;95.40;;;;;;5075319;28;20113;-70
2023/05/30 08:19:11;;;;;;;4.80;1.40;;;14.00;95.50;;;;;;5075193;28;20063;-70
2023/05/30 08:21:37;;;;;;;5.70;1.45;;;14.00;95.70;;;;;;5075435;28;20035;-70
2023/05/30 08:24:03;;;;;;;3.88;1.42;;;14.00;95.80;;;;;;5075546;28;20040;-70
2023/05/30 08:26:30;;;;;;;6.00;1.63;;;14.00;96.00;;;;;;5075228;28;20040;-70
2023/05/30 08:28:56;;;;;;;5.53;1.67;;;14.00;96.20;;;;;;5075106;28;20131;-70
2023/05/30 08:31:22;;;;;;;5.13;1.60;;;14.10;96.40;;;;;;5075083;28;20554;-70
2023/05/30 08:33:47;;;;;;;4.72;1.50;;;14.10;96.60;;;;;;5058424;28;20035;-70
2023/05/30 08:36:13;;;;;;;6.57;1.73;;;14.20;96.80;;;;;;5074804;28;20077;-70
2023/05/30 08:38:39;;;;;;;4.80;1.55;;;14.30;97.00;;;;;;5074886;28;20036;-70
2023/05/30 08:41:05;;;;;;;5.30;1.35;;;14.30;96.80;;;;;;5075345;28;20507;-70
2023/05/30 08:43:30;;;;;;;5.38;1.75;;;14.50;96.60;;;;;;5075022;28;20047;-70
2023/05/30 08:45:57;;;;;;;4.20;1.50;;;14.60;96.20;;;;;;5074985;28;20036;-70
2023/05/30 08:48:25;;;;;;;4.18;1.40;;;14.70;95.80;;;;;;5074985;28;20036;-70
2023/05/30 08:50:52;;;;;;;5.28;1.35;;;14.80;95.30;;;;;;5074881;28;20412;-70
2023/05/30 08:53:26;;;;;;;4.35;1.58;;;14.80;95.10;;;;;;5074969;28;20114;-70
2023/05/30 08:56:11;;;;;;;6.55;1.73;;;14.90;94.80;;;;;;5075003;28;20058;-70
2023/05/30 08:58:42;;;;;;;5.47;1.40;;;14.90;94.60;;;;;;5074852;28;20040;-70
2023/05/30 09:01:10;;;;;;;3.90;1.30;;;14.80;94.70;;;;;;5074716;28;20040;-70
2023/05/30 09:03:37;;;;;;;5.25;1.30;;;14.80;94.40;;;;;;5074868;28;20412;-70
2023/05/30 09:06:04;;;;;;;4.28;1.40;;;14.80;94.30;;;;;;5074975;28;20063;-70
2023/05/30 09:08:30;;;;;;;3.20;1.20;;;14.90;94.10;;;;;;5058164;28;20032;-70
2023/05/30 09:10:58;;;;;;;3.95;1.20;;;14.90;94.00;;;;;;5074971;28;20075;-70
2023/05/30 09:13:23;;;;;;;6.25;1.65;;;14.90;93.70;;;;;;5074692;28;20050;-70
2023/05/30 09:15:49;;;;;;;4.38;1.73;;;14.90;93.60;;;;;;5074776;28;20120;-70
2023/05/30 09:18:16;;;;;;;5.18;1.42;;;14.90;93.60;;;;;;5074690;28;20169;-70
2023/05/30 09:20:42;;;;;;;2.78;0.80;;;15.00;93.70;;;;;;5074546;28;20045;-70
2023/05/30 09:23:08;;;;;;;4.15;1.02;;;15.00;93.30;;;;;;5074652;28;20072;-70
2023/05/30 09:25:45;;;;;;;2.70;1.05;;;15.00;93.10;;;;;;5074674;28;20115;-70
2023/05/30 09:28:12;;;;;;;3.30;1.13;;;15.00;92.70;;;;;;5074688;28;20036;-70
2023/05/30 09:30:58;;;;;;;4.32;1.30;;;15.00;92.60;;;;;;5074819;28;20055;-70
2023/05/30 09:33:25;;;;;;;3.45;1.02;;;15.00;92.50;;;;;;5074609;28;20106;-70
2023/05/30 09:35:56;;;;;;;3.13;1.10;;;15.00;92.70;;;;;;5074582;28;20051;-70
2023/05/30 09:38:24;;;;;;;3.50;1.10;;;15.00;92.90;;;;;;5074438;28;20054;-70
2023/05/30 09:40:54;;;;;;;2.88;1.20;;;15.00;92.80;;;;;;5074367;28;20076;-70
2023/05/30 09:43:34;;;;;;;4.22;1.60;;;15.10;92.80;;;;;;5074800;28;20039;-70
2023/05/30 09:46:09;;;;;;;3.80;1.48;;;15.10;92.60;;;;;;5074452;28;20082;-70
2023/05/30 09:48:40;;;;;;;3.63;1.35;;;15.00;92.80;;;;;;5075870;28;20047;-70
2023/05/30 09:51:05;;;;;;;4.93;1.20;;;15.00;92.70;;;;;;5077864;28;20055;-70
2023/05/30 09:53:33;;;;;;;5.28;1.55;;;15.00;92.80;;;;;;5077934;28;20036;-70
2023/05/30 09:56:01;;;;;;;5.55;1.50;;;15.00;93.00;;;;;;5078112;28;20067;-70
2023/05/30 09:58:26;;;;;;;6.60;1.30;;;15.10;92.80;;;;;;5077823;28;20043;-70
2023/05/30 10:00:54;;;;;;;3.80;1.27;;;15.10;92.70;;;;;;5060796;28;20040;-70
2023/05/30 10:03:21;;;;;;;4.95;0.93;;;15.20;92.60;;;;;;5077727;28;20040;-70
2023/05/30 10:05:46;;;;;;;4.35;1.23;;;15.20;92.50;;;;;;5077976;28;20032;-70
2023/05/30 10:08:13;;;;;;;9.30;1.27;;;15.30;92.20;;;;;;5077639;28;20489;-70
2023/05/30 10:10:43;;;;;;;2.40;0.70;;;15.40;92.20;;;;;;5095686;28;20036;-70
2023/05/30 10:13:08;;;;;;;3.00;1.10;;;15.40;92.00;;;;;;5077856;28;20093;-70
2023/05/30 10:15:35;;;;;;;4.20;1.25;;;15.50;91.60;;;;;;5077755;28;20047;-70
2023/05/30 10:18:08;;;;;;;4.40;1.30;;;15.60;91.40;;;;;;5077449;28;20055;-70
2023/05/30 10:20:44;;;;;;;10.65;1.92;;;15.60;91.20;;;;;;5077268;28;20052;-70
2023/05/30 10:23:12;;;;;;;6.50;1.30;;;15.60;91.30;;;;;;5077449;28;20082;-70
2023/05/30 10:25:44;;;;;;;2.80;0.88;;;15.60;91.30;;;;;;5095732;28;20028;-70
2023/05/30 10:28:18;;;;;;;2.08;0.85;;;15.60;91.10;;;;;;5060704;28;20046;-70
2023/05/30 10:30:44;;;;;;;2.78;1.00;;;15.60;91.00;;;;;;5077170;28;20036;-70
2023/05/30 10:33:10;;;;;;;2.70;1.10;;;15.70;91.10;;;;;;5077436;28;20048;-70
2023/05/30 10:35:37;;;;;;;3.03;0.98;;;15.70;91.00;;;;;;5077115;28;20051;-70
2023/05/30 10:38:08;;;;;;;3.65;0.98;;;15.70;91.10;;;;;;5095479;28;20083;-70
2023/05/30 10:40:59;;;;;;;3.20;0.85;;;15.80;91.20;;;;;;5076960;28;20127;-70
2023/05/30 10:43:28;;;;;;;3.03;0.70;;;15.80;91.00;;;;;;5076962;28;20501;-70
2023/05/30 10:46:07;;;;;;;1.65;0.52;;;15.80;91.10;;;;;;5076934;28;20050;-70
2023/05/30 10:49:01;;;;;;;2.05;0.60;;;15.80;90.90;;;;;;5076906;28;20066;-70
2023/05/30 10:51:27;;;;;;;1.63;0.50;;;15.90;90.80;;;;;;5067730;28;20054;-70
2023/05/30 10:53:53;;;;;;;2.20;0.60;;;15.80;90.90;;;;;;5077072;28;20044;-70
2023/05/30 10:56:41;;;;;;;3.95;0.60;;;15.90;90.50;;;;;;5060006;28;20136;-70
2023/05/30 10:59:14;;;;;;;1.83;0.50;;;15.90;90.50;;;;;;5076556;28;20051;-70
2023/05/30 11:01:40;;;;;;;2.58;0.65;;;15.90;90.90;;;;;;5075976;28;20046;-70
2023/05/30 11:04:13;;;;;;;0.60;0.40;;;15.80;90.90;;;;;;5076594;28;20078;-70
2023/05/30 11:06:44;;;;;;;1.95;0.60;;;15.90;90.90;;;;;;5076495;28;20040;-70
2023/05/30 11:09:19;;;;;;;2.90;0.82;;;15.90;90.90;;;;;;5076689;28;20489;-70
2023/05/30 11:11:46;;;;;;;0.88;0.50;;;15.90;90.80;;;;;;5076650;28;20568;-70
2023/05/30 11:14:14;;;;;;;2.38;0.80;;;16.00;91.00;;;;;;5076389;28;20044;-70
2023/05/30 11:16:56;;;;;;;1.30;0.55;;;16.10;90.70;;;;;;5076607;28;20123;-70
2023/05/30 11:19:47;;;;;;;2.40;0.57;;;16.20;90.90;;;;;;5076250;28;20090;-70
2023/05/30 11:22:13;;;;;;;1.25;0.47;;;16.30;90.60;;;;;;5059597;28;20032;-70
2023/05/30 11:24:40;;;;;;;3.03;0.60;;;16.30;90.60;;;;;;5076185;28;20046;-70
2023/05/30 11:27:15;;;;;;;2.38;0.57;;;16.40;90.70;;;;;;5076381;28;20067;-71
2023/05/30 11:29:44;;;;;;;2.40;0.55;;;16.50;90.20;;;;;;5094205;28;20047;-71
2023/05/30 11:32:11;;;;;;;3.00;0.60;;;16.50;90.10;;;;;;5094111;28;20086;-71
2023/05/30 11:34:37;;;;;;;3.25;0.70;;;16.50;90.00;;;;;;5094135;28;20039;-71
2023/05/30 11:37:04;;;;;;;3.28;0.70;;;16.50;90.00;;;;;;5094076;28;20318;-71
2023/05/30 11:39:36;;;;;;;2.45;0.77;;;16.60;90.20;;;;;;5076096;28;20040;-71
2023/05/30 11:42:03;;;;;;;1.63;0.75;;;16.80;90.30;;;;;;5075737;28;20036;-71
2023/05/30 11:44:32;;;;;;;1.92;0.60;;;16.80;89.70;;;;;;5075789;28;20036;-71
2023/05/30 11:47:03;;;;;;;1.55;0.80;;;16.80;89.20;;;;;;5075708;28;20031;-71
2023/05/30 11:49:29;;;;;;;1.55;0.63;;;16.90;89.00;;;;;;5059118;28;20048;-71
2023/05/30 11:51:55;;;;;;;2.05;0.82;;;16.90;88.10;;;;;;5075564;28;20131;-71
2023/05/30 11:54:21;;;;;;;3.22;0.60;;;16.90;87.60;;;;;;5075661;28;20042;-71
2023/05/30 11:56:47;;;;;;;2.85;1.02;;;16.90;87.10;;;;;;5075594;28;20040;-71
2023/05/30 11:59:20;;;;;;;2.38;0.82;;;16.80;87.40;;;;;;5075472;28;20040;-71
2023/05/30 12:01:53;;;;;;;;;;;16.70;87.80;;;;;;5059116;28;20405;-70
2023/05/30 12:04:32;;;;;;;2.38;1.00;;;16.60;88.20;;;;;;5075750;28;20091;-70
2023/05/30 12:07:03;;;;;;;1.73;0.85;;;16.60;88.30;;;;;;5075545;28;20113;-70
2023/05/30 12:09:38;;;;;;;1.83;0.77;;;16.50;88.50;;;;;;5075447;28;20093;-71
2023/05/30 12:12:04;;;;;;;2.45;0.60;;;16.50;88.60;;;;;;5074487;28;20043;-71
2023/05/30 12:14:35;;;;;;;3.13;0.50;;;16.40;88.20;;;;;;5075684;28;20044;-71
2023/05/30 12:17:01;;;;;;;3.28;0.90;;;16.40;88.20;;;;;;5075430;28;20040;-71
2023/05/30 12:19:30;;;;;;;2.58;0.68;;;16.30;87.90;;;;;;5075456;28;20089;-71
2023/05/30 12:21:56;;;;;;;2.10;0.70;;;16.30;87.60;;;;;;5075203;28;20078;-71
2023/05/30 12:24:26;;;;;;;2.78;0.90;;;16.30;87.20;;;;;;5075178;28;20043;-71
2023/05/30 12:26:56;;;;;;;4.47;0.60;;;16.30;86.80;;;;;;5075487;28;20071;-71
2023/05/30 12:29:24;;;;;;;1.80;0.70;;;16.30;85.70;;;;;;5075248;28;20131;-71
2023/05/30 12:31:51;;;;;;;4.32;0.50;;;16.30;86.00;;;;;;5075104;28;20044;-71
2023/05/30 12:34:17;;;;;;;0.75;0.40;;;16.50;85.90;;;;;;5075221;28;20054;-71
2023/05/30 12:36:43;;;;;;;4.07;1.15;;;16.50;85.40;;;;;;5075404;28;20118;-71
2023/05/30 12:39:08;;;;;;;2.85;1.38;;;16.60;85.40;;;;;;5075052;28;20570;-71
2023/05/30 12:41:40;;;;;;;2.92;0.80;;;16.60;85.50;;;;;;5058333;28;20033;-71
2023/05/30 12:44:07;;;;;;;2.67;0.60;;;16.60;85.20;;;;;;5075057;28;20071;-71